Česky Dansk Deutsch English Español Suomi Français Magyar Italiano Nederlands norsk Polski Português svenska Türkçe

 

Het Weer

Monchengladbach (Duitsland)

09:50, 23 augustus 2016 (GMT)

NWNNE
WE
SWSSE
Home            
Monchengladbach Duesseldorf Brueggen Essen Geilenkirchen Noervenich Laarbruch Niederrhein Aachen / Merzbruck Kalkar Maastricht Airport Zuid Limburg Koeln / Bonn Kleine Brogel Volkel Genk Eindhoven Dortmund / Wickede Elsenborn Spa / La Sauveniere Bierset Deelen Sint-Truiden Schaffen

Om een weerknop op uw website of weblog te plaatsen, copieer onderstaande code en plak die in uw pagina. In het eerste vakje staat HTML-code, in het tweede vakje UBB-code.


Add to Google

Details

Wind speed:1 bf, 3 kn, 1.5 m/s, 3.5 miles/h, 5.6 km/h
Wind direction:Variable
Visibility:Greater than 10000 m, 10 km, 32800 ft, 6.2 miles
Clouds:CAVOC
Temperature:24°C, 75°F
Gefühlte Temperatur:25°C, 77°F
Dew-point:17°C, 63°F
Atmospheric pressure:1027 hPa, 770.3 mmHg, 30.33 inHg, 1.014 atm
Relative humidity:64.9 %
METAR:EDLN 230950Z VRB03KT CAVOK 24/17 Q1027

Snelkoppelingen

Actuele weersinformatie van de hele wereld. Voeg locaties toe met het plus (+) symbool. Deze snelkoppelingen kunnen worden toegevoegd aan Google.

Lid van de Technetium groep

website free tracking
StatCounter NetStat W3C Validator

20-06-2018 09:23:49
astro.technetium.be money.technetium.be phote.technetium.be tafeltennistafel.technetium.be www.ligfiets.net